Wallops Island, VA (23337)

8:07 PM EDT on July 27, 2016 (GMT -0400)
KE5BM-13 | | Change Station

Elev 38 ft 37.92 °N, 75.48 °W | Updated 6 seconds ago

Clear
Clear
80.8 °F
Feels Like 88 °F
N
0.0
Wind Variable Wind from SSW
Gusts 0.0 mph

Today
High -- | Low -- °F
--% Chance of Precip.
Yesterday
High -- | Low -- °F
Precip. -- in
Pressure 29.90 in
Visibility 7.0 miles
Clouds Clear
Heat Index 88 °F
Dew Point 77 °F
Humidity 89%
Rainfall 0.00 in
Snow Depth Not available.
6:01 AM 8:14 PM
Last Quarter, 38% visible
METAR KWAL 272354Z AUTO 14003KT 7SM CLR 28/25 A2991 RMK AO2 SLP125 T02780250 10328 20272 50004
Pressure 29.90 in
Visibility 7.0 miles
Clouds Clear
Heat Index 88 °F
Dew Point 77 °F
Humidity 89%
Rainfall 0.00 in
Snow Depth Not available.
6:01 AM 8:14 PM
Last Quarter, 38% visible
METAR KWAL 272354Z AUTO 14003KT 7SM CLR 28/25 A2991 RMK AO2 SLP125 T02780250 10328 20272 50004

10-Day Weather Forecast

Almanac

Astronomy

Jul. 27, 2016 Rise Set
Actual Time
Civil Twilight
Nautical Twilight
Astronomical Twilight
Moon
Length of Visible Light
Length of Day
Tomorrow will be .
, % of the Moon is Illuminated

Today's Extremes

State Highs State Lows

Community

WunderPhotos

Upload Photos

1,927,963 photos uploaded!

WunderBlog® & News

Nearby

Air Quality

  Air Quality AQ Index Pollutant
Not available.

Snow Depth

Station Depth Elevation

Earthquake Activity

City Distance Mag. Time & Date
Minimum magnitude displayed is 2.5.

Coastal Water Temperatures

Place Temperature

Stations

Nearby Weather Stations

Station Location Temp. Windchill Dew Point Humidity Wind Precip. Elev Updated Type
                   

Watches & Warnings

There are currently no watches in effect.